createdAt,value
2023-04-07T00:00:10.894Z,99.90
2023-04-07T00:02:44.369Z,99.90
2023-04-07T00:05:13.791Z,99.90
2023-04-07T00:07:53.026Z,99.90
2023-04-07T00:10:25.270Z,99.90
2023-04-07T00:12:54.409Z,99.90
2023-04-07T00:15:24.748Z,99.90
2023-04-07T00:17:53.813Z,99.90
2023-04-07T00:20:22.649Z,99.90
2023-04-07T00:22:51.437Z,99.90
2023-04-07T00:25:20.244Z,99.90
2023-04-07T00:27:48.918Z,99.90
2023-04-07T00:30:18.232Z,99.90
2023-04-07T00:32:48.409Z,99.90
2023-04-07T00:35:17.759Z,99.90
2023-04-07T00:37:46.879Z,99.90
2023-04-07T00:40:15.818Z,99.90
2023-04-07T00:42:44.514Z,99.90
2023-04-07T00:45:13.433Z,99.90
2023-04-07T00:47:42.465Z,99.90
2023-04-07T00:50:13.249Z,99.90
2023-04-07T00:52:42.717Z,99.90
2023-04-07T00:55:11.726Z,99.90
2023-04-07T00:57:40.410Z,99.90
2023-04-07T01:00:11.784Z,99.90
2023-04-07T01:02:44.679Z,99.90
2023-04-07T01:05:19.867Z,99.90
2023-04-07T01:07:59.424Z,99.90
2023-04-07T01:10:32.292Z,99.90
2023-04-07T01:13:10.535Z,99.90
2023-04-07T01:15:41.879Z,99.90
2023-04-07T01:18:16.791Z,99.90
2023-04-07T01:20:51.660Z,99.90
2023-04-07T01:23:30.078Z,99.90
2023-04-07T01:26:15.181Z,99.90
2023-04-07T01:28:59.065Z,99.90
2023-04-07T01:31:30.241Z,99.90
2023-04-07T01:34:01.773Z,99.90
2023-04-07T01:36:33.873Z,99.90
2023-04-07T01:39:03.151Z,99.90
2023-04-07T01:41:32.586Z,99.90
2023-04-07T01:44:03.772Z,99.90
2023-04-07T01:46:34.131Z,99.90
2023-04-07T01:49:04.259Z,99.90
2023-04-07T01:51:33.706Z,99.90
2023-04-07T01:54:28.486Z,99.90
2023-04-07T01:56:57.775Z,99.90
2023-04-07T01:59:27.405Z,99.90
2023-04-07T02:01:59.128Z,99.90
2023-04-07T02:04:39.199Z,99.90
2023-04-07T02:07:12.806Z,99.90
2023-04-07T02:09:47.901Z,99.90
2023-04-07T02:12:18.366Z,99.90
2023-04-07T02:14:59.486Z,99.90
2023-04-07T02:17:30.626Z,99.90
2023-04-07T02:20:00.563Z,99.90
2023-04-07T02:22:30.072Z,99.90
2023-04-07T02:24:58.778Z,99.90
2023-04-07T02:27:28.995Z,99.90
2023-04-07T02:29:57.553Z,99.90
2023-04-07T02:32:26.404Z,99.90
2023-04-07T02:34:57.016Z,99.90
2023-04-07T02:37:25.501Z,99.90
2023-04-07T02:39:54.039Z,99.90
2023-04-07T02:42:22.615Z,99.90
2023-04-07T02:44:51.414Z,99.90
2023-04-07T02:47:20.021Z,99.90
2023-04-07T02:49:48.527Z,99.90
2023-04-07T02:52:18.659Z,99.90
2023-04-07T02:54:47.456Z,99.90
2023-04-07T02:57:17.258Z,99.90
2023-04-07T02:59:46.200Z,99.90
2023-04-07T03:02:16.325Z,99.90
2023-04-07T03:04:45.047Z,99.90
2023-04-07T03:07:13.937Z,99.90
2023-04-07T03:09:44.639Z,99.90
2023-04-07T03:12:13.950Z,99.90
2023-04-07T03:14:42.823Z,99.90
2023-04-07T03:17:12.999Z,99.90
2023-04-07T03:19:41.868Z,99.90
2023-04-07T03:22:10.439Z,99.90
2023-04-07T03:24:48.068Z,99.90
2023-04-07T03:27:17.548Z,99.90
2023-04-07T03:29:48.993Z,99.90
2023-04-07T03:32:18.843Z,99.90
2023-04-07T03:34:47.461Z,99.90
2023-04-07T03:37:16.268Z,99.90
2023-04-07T03:39:45.812Z,99.90
2023-04-07T03:42:28.012Z,99.90
2023-04-07T03:45:02.980Z,99.90
2023-04-07T03:47:33.624Z,99.90
2023-04-07T03:50:04.812Z,99.90
2023-04-07T03:52:39.702Z,99.90
2023-04-07T03:55:18.962Z,99.90
2023-04-07T03:57:50.044Z,99.90
2023-04-07T04:00:18.874Z,99.90
2023-04-07T04:03:02.469Z,99.90
2023-04-07T04:05:31.334Z,99.90
2023-04-07T04:07:59.955Z,99.90
2023-04-07T04:10:29.685Z,99.90
2023-04-07T04:13:03.887Z,99.90
2023-04-07T04:15:32.761Z,99.90
2023-04-07T04:18:03.479Z,99.90
2023-04-07T04:20:33.561Z,99.90
2023-04-07T04:23:03.659Z,99.90
2023-04-07T04:25:32.287Z,99.90
2023-04-07T04:28:10.102Z,99.90
2023-04-07T04:30:38.733Z,99.90
2023-04-07T04:33:07.976Z,99.90
2023-04-07T04:35:48.548Z,99.90
2023-04-07T04:38:20.884Z,99.90
2023-04-07T04:40:56.202Z,99.90
2023-04-07T04:43:33.270Z,99.90
2023-04-07T04:46:03.277Z,99.90
2023-04-07T04:48:36.720Z,99.90
2023-04-07T04:51:09.023Z,99.90
2023-04-07T04:53:39.563Z,99.90
2023-04-07T04:56:09.833Z,99.90
2023-04-07T04:58:46.727Z,99.90
2023-04-07T05:01:34.653Z,99.90
2023-04-07T05:04:09.732Z,99.90
2023-04-07T05:06:40.981Z,99.90
2023-04-07T05:09:13.244Z,99.90
2023-04-07T05:11:45.663Z,99.90
2023-04-07T05:14:15.960Z,99.90
2023-04-07T05:16:50.814Z,99.90
2023-04-07T05:19:23.680Z,99.90
2023-04-07T05:21:55.763Z,99.90
2023-04-07T05:24:28.674Z,99.90
2023-04-07T05:27:02.026Z,99.90
2023-04-07T05:29:33.783Z,99.90
2023-04-07T05:32:04.513Z,99.90
2023-04-07T05:34:34.010Z,99.90
2023-04-07T05:37:02.669Z,99.90
2023-04-07T05:39:31.903Z,99.90
2023-04-07T05:42:01.752Z,99.90
2023-04-07T05:44:30.969Z,99.90
2023-04-07T05:47:01.379Z,99.90
2023-04-07T05:49:31.978Z,99.90
2023-04-07T05:52:06.137Z,99.90
2023-04-07T05:54:40.444Z,99.90
2023-04-07T05:57:09.354Z,99.90
2023-04-07T05:59:42.896Z,99.90
2023-04-07T06:02:13.346Z,99.90
2023-04-07T06:04:42.232Z,99.90
2023-04-07T06:07:15.500Z,99.90
2023-04-07T06:09:45.102Z,99.90
2023-04-07T06:12:15.273Z,99.90
2023-04-07T06:14:44.042Z,99.90
2023-04-07T06:17:14.140Z,99.90
2023-04-07T06:19:42.792Z,99.90
2023-04-07T06:22:11.572Z,99.90
2023-04-07T06:24:41.683Z,99.90
2023-04-07T06:27:10.363Z,99.90
2023-04-07T06:29:39.214Z,99.90
2023-04-07T06:32:08.529Z,99.90
2023-04-07T06:34:40.775Z,99.90
2023-04-07T06:37:09.685Z,99.90
2023-04-07T06:39:38.911Z,99.90
2023-04-07T06:42:07.640Z,99.90
2023-04-07T06:44:41.012Z,99.90
2023-04-07T06:47:09.662Z,99.90
2023-04-07T06:49:38.193Z,99.90
2023-04-07T06:52:08.416Z,99.90
2023-04-07T06:54:37.141Z,99.90
2023-04-07T06:57:06.898Z,99.90
2023-04-07T06:59:35.982Z,99.90
2023-04-07T07:02:04.838Z,99.90
2023-04-07T07:04:34.045Z,99.90
2023-04-07T07:07:04.092Z,99.90
2023-04-07T07:09:34.968Z,99.90
2023-04-07T07:12:04.398Z,99.90
2023-04-07T07:14:33.237Z,99.90
2023-04-07T07:17:04.466Z,99.90
2023-04-07T07:19:33.442Z,99.90
2023-04-07T07:22:04.323Z,99.90
2023-04-07T07:24:34.774Z,99.90
2023-04-07T07:27:03.916Z,99.90
2023-04-07T07:29:32.819Z,99.60
2023-04-07T07:32:01.836Z,99.30
2023-04-07T07:34:31.401Z,98.40
2023-04-07T07:37:00.609Z,97.30
2023-04-07T07:39:30.075Z,96.80
2023-04-07T07:42:00.223Z,96.20
2023-04-07T07:44:30.833Z,95.80
2023-04-07T07:47:01.197Z,94.40
2023-04-07T07:49:29.973Z,94.00
2023-04-07T07:51:59.834Z,94.20
2023-04-07T07:54:28.474Z,92.60
2023-04-07T07:56:57.501Z,91.50
2023-04-07T07:59:27.815Z,91.70
2023-04-07T08:01:56.643Z,91.60
2023-04-07T08:04:26.421Z,91.60
2023-04-07T08:06:56.235Z,91.10
2023-04-07T08:09:27.459Z,90.20
2023-04-07T08:11:56.382Z,89.60
2023-04-07T08:14:25.073Z,89.80
2023-04-07T08:16:55.095Z,89.50
2023-04-07T08:19:24.069Z,88.70
2023-04-07T08:21:52.732Z,89.30
2023-04-07T08:24:21.387Z,87.90
2023-04-07T08:26:49.942Z,87.70
2023-04-07T08:29:18.646Z,88.00
2023-04-07T08:31:47.226Z,87.40
2023-04-07T08:34:17.253Z,86.70
2023-04-07T08:36:46.138Z,87.30
2023-04-07T08:39:14.634Z,87.90
2023-04-07T08:41:44.822Z,88.00
2023-04-07T08:44:14.416Z,87.00
2023-04-07T08:46:43.473Z,86.20
2023-04-07T08:49:14.123Z,86.10
2023-04-07T08:51:48.635Z,85.20
2023-04-07T08:54:21.772Z,83.40
2023-04-07T08:56:50.440Z,81.20
2023-04-07T08:59:23.155Z,82.20
2023-04-07T09:01:52.921Z,82.90
2023-04-07T09:04:23.067Z,82.90
2023-04-07T09:06:53.051Z,81.60
2023-04-07T09:09:21.492Z,82.30
2023-04-07T09:11:51.376Z,81.70
2023-04-07T09:14:21.114Z,83.00
2023-04-07T09:16:49.718Z,81.60
2023-04-07T09:19:18.496Z,80.70
2023-04-07T09:21:52.909Z,79.90
2023-04-07T09:24:26.168Z,81.40
2023-04-07T09:27:15.289Z,81.70
2023-04-07T09:29:46.880Z,81.70
2023-04-07T09:32:37.270Z,82.20
2023-04-07T09:35:06.487Z,82.40
2023-04-07T09:37:37.508Z,82.60
2023-04-07T09:40:07.150Z,82.00
2023-04-07T09:42:38.030Z,80.80
2023-04-07T09:45:07.253Z,81.70
2023-04-07T09:47:35.974Z,82.00
2023-04-07T09:50:07.313Z,80.00
2023-04-07T09:52:54.012Z,80.20
2023-04-07T09:55:23.369Z,79.60
2023-04-07T09:57:52.635Z,80.40
2023-04-07T10:00:21.280Z,80.70
2023-04-07T10:02:51.576Z,82.10
2023-04-07T10:05:22.375Z,81.30
2023-04-07T10:07:52.706Z,78.90
2023-04-07T10:10:21.507Z,78.20
2023-04-07T10:12:54.713Z,77.30
2023-04-07T10:15:24.539Z,76.60
2023-04-07T10:17:56.936Z,77.50
2023-04-07T10:20:26.247Z,77.60
2023-04-07T10:23:03.976Z,76.80
2023-04-07T10:25:32.931Z,75.30
2023-04-07T10:28:07.714Z,73.00
2023-04-07T10:30:37.084Z,73.00
2023-04-07T10:33:06.585Z,73.20
2023-04-07T10:36:06.262Z,72.10
2023-04-07T10:38:36.518Z,71.30
2023-04-07T10:41:36.645Z,71.60
2023-04-07T10:44:05.212Z,68.30
2023-04-07T10:47:04.788Z,69.10
2023-04-07T10:49:34.141Z,69.40
2023-04-07T10:52:25.420Z,68.70
2023-04-07T10:55:32.902Z,68.90
2023-04-07T10:58:18.474Z,68.50
2023-04-07T11:01:22.024Z,68.60
2023-04-07T11:04:02.126Z,68.00
2023-04-07T11:06:31.659Z,66.30
2023-04-07T11:09:00.698Z,65.70
2023-04-07T11:11:43.673Z,64.90
2023-04-07T11:14:12.264Z,66.20
2023-04-07T11:16:42.942Z,65.50
2023-04-07T11:19:11.471Z,63.40
2023-04-07T11:21:40.347Z,61.60
2023-04-07T11:24:08.896Z,61.50
2023-04-07T11:26:43.724Z,61.20
2023-04-07T11:29:13.600Z,61.60
2023-04-07T11:31:42.158Z,61.60
2023-04-07T11:34:11.369Z,60.70
2023-04-07T11:36:41.657Z,62.10
2023-04-07T11:39:21.549Z,60.90
2023-04-07T11:41:52.170Z,63.00
2023-04-07T11:44:20.795Z,60.00
2023-04-07T11:46:56.836Z,59.40
2023-04-07T11:49:26.140Z,58.50
2023-04-07T11:52:00.963Z,57.70
2023-04-07T11:54:29.674Z,57.20
2023-04-07T11:56:59.851Z,57.50
2023-04-07T11:59:29.198Z,56.20
2023-04-07T12:01:58.232Z,56.00
2023-04-07T12:04:26.942Z,57.40
2023-04-07T12:06:55.591Z,57.40
2023-04-07T12:09:29.720Z,59.30
2023-04-07T12:12:00.859Z,58.90
2023-04-07T12:14:29.620Z,59.80
2023-04-07T12:16:59.077Z,59.50
2023-04-07T12:19:28.683Z,59.20
2023-04-07T12:21:57.466Z,60.00
2023-04-07T12:24:26.321Z,58.90
2023-04-07T12:26:54.958Z,59.60
2023-04-07T12:29:25.232Z,59.00
2023-04-07T12:31:54.001Z,57.50
2023-04-07T12:34:22.619Z,57.10
2023-04-07T12:36:51.721Z,56.40
2023-04-07T12:39:20.684Z,57.60
2023-04-07T12:41:49.341Z,57.80
2023-04-07T12:44:18.017Z,58.10
2023-04-07T12:46:48.036Z,58.20
2023-04-07T12:49:16.693Z,57.90
2023-04-07T12:51:46.072Z,58.10
2023-04-07T12:54:15.101Z,58.30
2023-04-07T12:56:43.580Z,58.50
2023-04-07T12:59:13.073Z,58.30
2023-04-07T13:01:41.622Z,57.10
2023-04-07T13:04:11.807Z,58.00
2023-04-07T13:06:40.492Z,58.50
2023-04-07T13:09:09.042Z,59.10
2023-04-07T13:11:37.728Z,59.00
2023-04-07T13:14:07.281Z,58.20
2023-04-07T13:16:36.021Z,58.10
2023-04-07T13:19:04.628Z,58.10
2023-04-07T13:21:46.020Z,58.00
2023-04-07T13:24:14.967Z,58.00
2023-04-07T13:26:43.555Z,58.60
2023-04-07T13:29:12.100Z,58.90
2023-04-07T13:31:40.583Z,58.70
2023-04-07T13:34:09.267Z,58.60
2023-04-07T13:36:39.307Z,59.60
2023-04-07T13:39:07.963Z,59.60
2023-04-07T13:41:36.730Z,59.00
2023-04-07T13:44:05.258Z,60.00
2023-04-07T13:46:33.712Z,61.10
2023-04-07T13:49:02.342Z,60.60
2023-04-07T13:51:30.785Z,61.50
2023-04-07T13:54:00.960Z,61.20
2023-04-07T13:56:29.504Z,61.80
2023-04-07T13:58:58.611Z,63.70
2023-04-07T14:01:27.729Z,63.60
2023-04-07T14:03:59.264Z,63.90
2023-04-07T14:06:31.943Z,64.20
2023-04-07T14:09:02.169Z,64.60
2023-04-07T14:11:30.774Z,64.80
2023-04-07T14:13:59.366Z,64.80
2023-04-07T14:16:28.573Z,65.80
2023-04-07T14:18:57.297Z,65.90
2023-04-07T14:21:27.525Z,65.60
2023-04-07T14:23:56.364Z,64.50
2023-04-07T14:26:27.241Z,65.30
2023-04-07T14:28:55.612Z,64.80
2023-04-07T14:31:24.100Z,64.30
2023-04-07T14:33:52.870Z,64.40
2023-04-07T14:36:21.512Z,65.30
2023-04-07T14:38:50.979Z,65.40
2023-04-07T14:41:20.312Z,65.50
2023-04-07T14:43:55.987Z,65.60
2023-04-07T14:46:24.664Z,66.00
2023-04-07T14:48:53.567Z,64.50
2023-04-07T14:51:22.811Z,64.70
2023-04-07T14:53:55.749Z,66.20
2023-04-07T14:56:27.441Z,66.60
2023-04-07T14:58:57.347Z,65.60
2023-04-07T15:01:26.031Z,66.40
2023-04-07T15:03:54.813Z,65.40
2023-04-07T15:06:23.762Z,65.40
2023-04-07T15:08:52.274Z,66.10
2023-04-07T15:11:21.758Z,66.70
2023-04-07T15:13:50.873Z,65.30
2023-04-07T15:16:21.447Z,65.40
2023-04-07T15:18:50.105Z,66.20
2023-04-07T15:21:19.074Z,66.30
2023-04-07T15:23:48.577Z,67.00
2023-04-07T15:26:17.441Z,66.60
2023-04-07T15:28:46.021Z,67.50
2023-04-07T15:31:15.077Z,67.40
2023-04-07T15:33:46.460Z,68.60
2023-04-07T15:36:15.275Z,67.90
2023-04-07T15:38:43.867Z,67.60
2023-04-07T15:41:16.913Z,66.80
2023-04-07T15:43:45.652Z,67.70
2023-04-07T15:46:14.407Z,68.50
2023-04-07T15:48:44.709Z,68.70
2023-04-07T15:51:13.453Z,67.50
2023-04-07T15:53:42.329Z,66.90
2023-04-07T15:56:12.524Z,67.40
2023-04-07T15:58:42.319Z,67.90
2023-04-07T16:01:11.005Z,68.30
2023-04-07T16:03:39.607Z,68.80
2023-04-07T16:06:09.679Z,69.10
2023-04-07T16:08:38.327Z,70.00
2023-04-07T16:11:07.341Z,68.70
2023-04-07T16:13:36.389Z,68.70
2023-04-07T16:16:05.184Z,68.30
2023-04-07T16:18:33.923Z,68.30
2023-04-07T16:21:04.576Z,68.70
2023-04-07T16:23:34.883Z,69.20
2023-04-07T16:26:03.941Z,69.70
2023-04-07T16:28:32.655Z,70.40
2023-04-07T16:31:02.634Z,70.70
2023-04-07T16:33:31.212Z,71.00
2023-04-07T16:35:59.766Z,71.60
2023-04-07T16:38:29.275Z,71.90
2023-04-07T16:41:04.365Z,72.30
2023-04-07T16:43:33.349Z,72.90
2023-04-07T16:46:02.108Z,73.80
2023-04-07T16:48:30.871Z,73.90
2023-04-07T16:50:59.422Z,74.00
2023-04-07T16:53:28.144Z,74.30
2023-04-07T16:55:58.740Z,74.70
2023-04-07T16:58:27.969Z,75.00
2023-04-07T17:00:56.729Z,75.10
2023-04-07T17:03:25.752Z,75.60
2023-04-07T17:05:54.909Z,76.20
2023-04-07T17:08:25.984Z,76.80
2023-04-07T17:10:54.548Z,77.00
2023-04-07T17:13:24.662Z,77.10
2023-04-07T17:15:54.386Z,77.60
2023-04-07T17:18:23.154Z,78.80
2023-04-07T17:20:51.984Z,78.10
2023-04-07T17:23:20.729Z,78.40
2023-04-07T17:25:50.568Z,79.10
2023-04-07T17:28:19.245Z,79.50
2023-04-07T17:30:49.542Z,80.00
2023-04-07T17:33:18.147Z,80.20
2023-04-07T17:35:49.878Z,80.70
2023-04-07T17:38:18.640Z,81.40
2023-04-07T17:40:47.324Z,81.60
2023-04-07T17:43:16.400Z,82.00
2023-04-07T17:45:44.907Z,82.80
2023-04-07T17:48:15.011Z,82.90
2023-04-07T17:50:43.916Z,83.60
2023-04-07T17:53:12.838Z,83.60
2023-04-07T17:55:42.022Z,84.30
2023-04-07T17:58:10.913Z,85.60
2023-04-07T18:00:40.138Z,86.10
2023-04-07T18:03:09.427Z,86.90
2023-04-07T18:05:44.208Z,87.50
2023-04-07T18:08:13.434Z,87.90
2023-04-07T18:10:42.783Z,89.60
2023-04-07T18:13:11.768Z,90.20
2023-04-07T18:15:41.018Z,90.80
2023-04-07T18:18:10.093Z,91.40
2023-04-07T18:20:42.389Z,91.70
2023-04-07T18:23:11.307Z,92.10
2023-04-07T18:25:40.457Z,92.70
2023-04-07T18:28:09.497Z,93.10
2023-04-07T18:30:39.326Z,93.60
2023-04-07T18:33:08.135Z,94.10
2023-04-07T18:35:37.183Z,94.40
2023-04-07T18:38:07.583Z,94.50
2023-04-07T18:40:36.233Z,94.90
2023-04-07T18:43:04.925Z,95.30
2023-04-07T18:45:37.139Z,95.60
2023-04-07T18:48:06.021Z,96.00
2023-04-07T18:50:34.621Z,96.80
2023-04-07T18:53:03.368Z,96.80
2023-04-07T18:55:33.493Z,97.00
2023-04-07T18:58:03.930Z,97.40
2023-04-07T19:00:32.708Z,97.80
2023-04-07T19:03:01.645Z,98.30
2023-04-07T19:05:30.402Z,98.80
2023-04-07T19:07:59.001Z,99.10
2023-04-07T19:10:27.761Z,99.40
2023-04-07T19:12:57.846Z,99.70
2023-04-07T19:15:26.607Z,99.90
2023-04-07T19:17:55.365Z,99.90
2023-04-07T19:20:24.253Z,99.90
2023-04-07T19:22:53.139Z,99.90
2023-04-07T19:25:21.751Z,99.90
2023-04-07T19:27:50.393Z,99.90
2023-04-07T19:30:20.611Z,99.90
2023-04-07T19:32:49.454Z,99.90
2023-04-07T19:35:18.201Z,99.90
2023-04-07T19:37:48.319Z,99.90
2023-04-07T19:40:17.677Z,99.90
2023-04-07T19:42:46.692Z,99.90
2023-04-07T19:45:26.313Z,99.90
2023-04-07T19:47:57.470Z,99.90
2023-04-07T19:50:30.790Z,99.90
2023-04-07T19:52:59.562Z,99.90
2023-04-07T19:55:30.596Z,99.90
2023-04-07T19:57:59.419Z,99.90
2023-04-07T20:00:30.675Z,99.90
2023-04-07T20:03:02.210Z,99.90
2023-04-07T20:05:30.916Z,99.90
2023-04-07T20:08:01.089Z,99.90
2023-04-07T20:10:29.902Z,99.90
2023-04-07T20:12:58.663Z,99.90
2023-04-07T20:15:27.253Z,99.90
2023-04-07T20:17:56.405Z,99.90
2023-04-07T20:20:26.792Z,99.90
2023-04-07T20:22:55.413Z,99.90
2023-04-07T20:25:24.355Z,99.90
2023-04-07T20:27:52.985Z,99.90
2023-04-07T20:30:21.563Z,99.90
2023-04-07T20:32:50.289Z,99.90
2023-04-07T20:35:19.734Z,99.90
2023-04-07T20:37:49.945Z,99.90
2023-04-07T20:40:18.816Z,99.90
2023-04-07T20:42:47.639Z,99.90
2023-04-07T20:45:16.391Z,99.90
2023-04-07T20:47:45.700Z,99.90
2023-04-07T20:50:14.441Z,99.90
2023-04-07T20:52:43.924Z,99.90
2023-04-07T20:55:14.361Z,99.90
2023-04-07T20:57:43.208Z,99.90
2023-04-07T21:00:13.282Z,99.90
2023-04-07T21:02:42.921Z,99.90
2023-04-07T21:05:11.826Z,99.90
2023-04-07T21:07:40.623Z,99.90
2023-04-07T21:10:10.466Z,99.90
2023-04-07T21:12:40.519Z,99.90
2023-04-07T21:15:09.835Z,99.90
2023-04-07T21:17:38.473Z,99.90
2023-04-07T21:20:08.499Z,99.90
2023-04-07T21:22:37.195Z,99.90
2023-04-07T21:25:07.353Z,99.90
2023-04-07T21:27:36.186Z,99.90
2023-04-07T21:30:07.739Z,99.90
2023-04-07T21:32:36.766Z,99.90
2023-04-07T21:35:06.150Z,99.90
2023-04-07T21:37:34.856Z,99.90
2023-04-07T21:40:03.515Z,99.90
2023-04-07T21:42:32.360Z,99.90
2023-04-07T21:45:00.897Z,99.90
2023-04-07T21:47:31.048Z,99.90
2023-04-07T21:49:59.899Z,99.90
2023-04-07T21:52:28.683Z,99.90
2023-04-07T21:54:57.372Z,99.90
2023-04-07T21:57:26.086Z,99.90
2023-04-07T21:59:56.092Z,99.90
2023-04-07T22:02:24.867Z,99.90
2023-04-07T22:04:55.091Z,99.90
2023-04-07T22:07:23.624Z,99.90
2023-04-07T22:09:52.202Z,99.90
2023-04-07T22:12:20.792Z,99.90
2023-04-07T22:14:49.313Z,99.90
2023-04-07T22:17:17.894Z,99.90
2023-04-07T22:19:46.544Z,99.90
2023-04-07T22:22:16.756Z,99.90
2023-04-07T22:24:45.504Z,99.90
2023-04-07T22:27:14.367Z,99.90
2023-04-07T22:29:43.090Z,99.90
2023-04-07T22:32:11.702Z,99.90
2023-04-07T22:34:40.536Z,99.90
2023-04-07T22:37:09.419Z,99.90
2023-04-07T22:39:39.552Z,99.90
2023-04-07T22:42:08.213Z,99.90
2023-04-07T22:44:36.786Z,99.90
2023-04-07T22:47:05.578Z,99.90
2023-04-07T22:49:34.336Z,99.90
2023-04-07T22:52:03.275Z,99.90
2023-04-07T22:54:31.846Z,99.90
2023-04-07T22:57:02.499Z,99.90
2023-04-07T22:59:31.227Z,99.90
2023-04-07T23:01:59.887Z,99.90
2023-04-07T23:04:28.722Z,99.90
2023-04-07T23:06:57.458Z,99.90
2023-04-07T23:09:26.555Z,99.90
2023-04-07T23:11:55.162Z,99.90
2023-04-07T23:14:25.172Z,99.90
2023-04-07T23:16:54.698Z,99.90
2023-04-07T23:19:23.508Z,99.90
2023-04-07T23:21:52.409Z,99.90
2023-04-07T23:24:21.093Z,99.90
2023-04-07T23:26:49.760Z,99.90
2023-04-07T23:29:18.395Z,99.90
2023-04-07T23:31:49.204Z,99.90
2023-04-07T23:34:17.763Z,99.90
2023-04-07T23:36:46.600Z,99.90
2023-04-07T23:39:15.161Z,99.90
2023-04-07T23:41:44.124Z,99.90
2023-04-07T23:44:12.671Z,99.90
2023-04-07T23:46:41.233Z,99.90
2023-04-07T23:49:11.335Z,99.90
2023-04-07T23:51:40.551Z,99.90
2023-04-07T23:54:09.096Z,99.90
2023-04-07T23:56:37.934Z,99.90
2023-04-07T23:59:06.789Z,99.90
